createdAt,value
2019-05-02T00:00:04.040Z,16.33
2019-05-02T00:02:34.040Z,15.57
2019-05-02T00:05:04.569Z,15.17
2019-05-02T00:07:34.332Z,17.83
2019-05-02T00:10:06.117Z,13.97
2019-05-02T00:12:36.259Z,15.17
2019-05-02T00:15:07.291Z,11.80
2019-05-02T00:17:37.421Z,11.57
2019-05-02T00:20:09.793Z,13.40
2019-05-02T00:22:39.423Z,12.67
2019-05-02T00:25:11.063Z,12.43
2019-05-02T00:27:40.335Z,12.67
2019-05-02T00:30:10.844Z,13.40
2019-05-02T00:32:40.434Z,10.87
2019-05-02T00:35:10.124Z,11.93
2019-05-02T00:37:40.195Z,20.97
2019-05-02T00:40:10.036Z,14.23
2019-05-02T00:42:39.499Z,14.80
2019-05-02T00:45:14.190Z,13.13
2019-05-02T00:47:53.095Z,15.37
2019-05-02T00:50:24.506Z,13.67
2019-05-02T00:52:54.059Z,12.23
2019-05-02T00:55:23.638Z,22.57
2019-05-02T00:57:55.633Z,37.97
2019-05-02T01:00:24.674Z,23.07
2019-05-02T01:02:58.114Z,14.83
2019-05-02T01:05:28.079Z,16.13
2019-05-02T01:08:01.159Z,16.33
2019-05-02T01:10:29.243Z,15.60
2019-05-02T01:12:59.054Z,17.60
2019-05-02T01:15:29.028Z,15.30
2019-05-02T01:18:01.180Z,18.77
2019-05-02T01:20:29.946Z,12.87
2019-05-02T01:22:59.730Z,14.03
2019-05-02T01:25:29.261Z,12.43
2019-05-02T01:28:19.798Z,26.23
2019-05-02T01:31:24.023Z,20.90
2019-05-02T01:34:03.562Z,15.47
2019-05-02T01:36:44.458Z,17.90
2019-05-02T01:39:14.271Z,18.83
2019-05-02T01:41:44.871Z,23.53
2019-05-02T01:44:14.370Z,38.57
2019-05-02T01:46:44.327Z,33.07
2019-05-02T01:49:16.837Z,37.90
2019-05-02T01:51:47.627Z,37.10
2019-05-02T01:54:16.465Z,40.67
2019-05-02T01:56:46.159Z,36.67
2019-05-02T01:59:15.749Z,35.47
2019-05-02T02:01:45.211Z,43.60
2019-05-02T02:04:16.142Z,36.77
2019-05-02T02:06:46.679Z,43.77
2019-05-02T02:09:16.289Z,41.13
2019-05-02T02:11:46.355Z,46.73
2019-05-02T02:14:18.544Z,47.47
2019-05-02T02:16:48.027Z,52.17
2019-05-02T02:19:23.060Z,47.57
2019-05-02T02:22:02.966Z,52.93
2019-05-02T02:24:38.308Z,55.67
2019-05-02T02:27:07.135Z,50.57
2019-05-02T02:29:39.117Z,53.90
2019-05-02T02:32:09.774Z,52.23
2019-05-02T02:34:39.161Z,54.70
2019-05-02T02:37:12.468Z,55.17
2019-05-02T02:39:39.364Z,61.10
2019-05-02T02:42:08.608Z,62.70
2019-05-02T02:45:03.158Z,62.23
2019-05-02T02:47:32.772Z,61.83
2019-05-02T02:50:05.112Z,62.00
2019-05-02T02:52:37.862Z,65.60
2019-05-02T02:55:04.565Z,72.50
2019-05-02T02:57:34.000Z,71.80
2019-05-02T03:00:07.654Z,69.13
2019-05-02T03:02:34.234Z,76.00
2019-05-02T03:05:03.531Z,77.67
2019-05-02T03:07:33.046Z,70.97
2019-05-02T03:10:06.028Z,71.40
2019-05-02T03:13:07.346Z,72.00
2019-05-02T03:15:41.382Z,68.43
2019-05-02T03:18:10.552Z,69.60
2019-05-02T03:20:40.564Z,67.23
2019-05-02T03:23:15.246Z,65.63
2019-05-02T03:25:50.715Z,65.43
2019-05-02T03:28:18.668Z,61.77
2019-05-02T03:30:43.885Z,64.30
2019-05-02T03:33:13.136Z,63.53
2019-05-02T03:35:48.730Z,66.97
2019-05-02T03:38:13.487Z,64.30
2019-05-02T03:40:43.095Z,69.60
2019-05-02T03:43:19.115Z,76.80
2019-05-02T03:45:44.150Z,69.77
2019-05-02T03:48:18.449Z,67.03
2019-05-02T03:50:44.622Z,69.03
2019-05-02T03:53:17.675Z,77.37
2019-05-02T03:55:45.349Z,71.07
2019-05-02T03:58:17.050Z,69.13
2019-05-02T04:00:45.745Z,76.70
2019-05-02T04:03:16.301Z,70.70
2019-05-02T04:05:45.595Z,69.70
2019-05-02T04:08:21.292Z,69.60
2019-05-02T04:11:39.072Z,73.17
2019-05-02T04:14:14.635Z,63.83
2019-05-02T04:16:35.934Z,71.07
2019-05-02T04:19:06.213Z,70.43
2019-05-02T04:21:36.661Z,65.43
2019-05-02T04:24:15.080Z,66.60
2019-05-02T04:26:37.603Z,65.93
2019-05-02T04:29:06.936Z,68.57
2019-05-02T04:31:36.178Z,63.73
2019-05-02T04:34:14.234Z,63.27
2019-05-02T04:36:36.687Z,68.47
2019-05-02T04:39:12.639Z,64.23
2019-05-02T04:41:39.158Z,65.53
2019-05-02T04:44:09.286Z,67.37
2019-05-02T04:46:39.039Z,65.50
2019-05-02T04:49:09.226Z,62.33
2019-05-02T04:51:38.789Z,69.67
2019-05-02T04:54:09.208Z,66.37
2019-05-02T04:56:48.252Z,63.23
2019-05-02T04:59:18.108Z,67.00
2019-05-02T05:01:48.369Z,62.77
2019-05-02T05:04:11.825Z,71.67
2019-05-02T05:06:52.507Z,70.27
2019-05-02T05:09:14.819Z,69.67
2019-05-02T05:11:42.908Z,67.20
2019-05-02T05:14:12.073Z,71.70
2019-05-02T05:16:45.431Z,60.27
2019-05-02T05:19:12.553Z,54.47
2019-05-02T05:21:41.778Z,52.67
2019-05-02T05:24:32.732Z,54.63
2019-05-02T05:27:00.174Z,53.53
2019-05-02T05:29:29.520Z,51.17
2019-05-02T05:32:05.465Z,51.80
2019-05-02T05:34:32.670Z,54.03
2019-05-02T05:37:03.746Z,62.73
2019-05-02T05:39:31.789Z,65.27
2019-05-02T05:42:01.351Z,69.33
2019-05-02T05:44:32.662Z,57.17
2019-05-02T05:47:02.370Z,76.30
2019-05-02T05:49:33.476Z,68.93
2019-05-02T05:52:04.100Z,69.90
2019-05-02T05:54:38.394Z,65.80
2019-05-02T05:57:04.922Z,70.17
2019-05-02T05:59:34.303Z,72.40
2019-05-02T06:02:05.495Z,64.70
2019-05-02T06:04:34.962Z,55.87
2019-05-02T06:07:04.289Z,63.90
2019-05-02T06:09:33.573Z,55.40
2019-05-02T06:12:02.849Z,54.30
2019-05-02T06:14:34.452Z,53.57
2019-05-02T06:17:03.066Z,53.47
2019-05-02T06:19:33.052Z,51.07
2019-05-02T06:22:02.998Z,76.40
2019-05-02T06:24:33.840Z,82.17
2019-05-02T06:27:03.646Z,83.17
2019-05-02T06:29:33.578Z,76.67
2019-05-02T06:32:06.165Z,79.50
2019-05-02T06:34:38.839Z,78.77
2019-05-02T06:37:08.078Z,75.97
2019-05-02T06:39:37.970Z,78.33
2019-05-02T06:42:07.310Z,77.23
2019-05-02T06:44:36.701Z,76.83
2019-05-02T06:47:06.251Z,76.90
2019-05-02T06:49:35.492Z,74.30
2019-05-02T06:52:04.663Z,69.50
2019-05-02T06:54:33.988Z,70.43
2019-05-02T06:57:03.767Z,72.67
2019-05-02T06:59:33.017Z,74.50
2019-05-02T07:02:02.517Z,70.47
2019-05-02T07:04:31.854Z,75.93
2019-05-02T07:07:01.437Z,72.93
2019-05-02T07:09:40.598Z,75.93
2019-05-02T07:12:01.909Z,71.37
2019-05-02T07:14:32.383Z,70.17
2019-05-02T07:17:09.807Z,70.53
2019-05-02T07:19:45.465Z,72.63
2019-05-02T07:22:14.732Z,73.67
2019-05-02T07:24:44.010Z,73.40
2019-05-02T07:27:13.284Z,70.93
2019-05-02T07:29:42.544Z,70.40
2019-05-02T07:32:11.917Z,67.17
2019-05-02T07:34:44.214Z,66.67
2019-05-02T07:37:13.785Z,66.70
2019-05-02T07:39:43.629Z,67.15
2019-05-02T07:42:12.921Z,69.17
2019-05-02T07:44:42.182Z,70.73
2019-05-02T07:47:12.337Z,67.30
2019-05-02T07:49:41.525Z,66.97
2019-05-02T07:52:11.150Z,69.33
2019-05-02T07:54:40.446Z,68.28
2019-05-02T07:57:09.733Z,69.17
2019-05-02T07:59:38.905Z,69.70
2019-05-02T08:02:08.442Z,70.10
2019-05-02T08:04:37.964Z,65.40
2019-05-02T08:07:07.312Z,64.23
2019-05-02T08:09:39.273Z,66.30
2019-05-02T08:12:08.518Z,71.37
2019-05-02T08:14:38.460Z,69.40
2019-05-02T08:17:16.163Z,69.70
2019-05-02T08:19:41.695Z,70.10
2019-05-02T08:22:13.835Z,72.67
2019-05-02T08:24:41.044Z,69.00
2019-05-02T08:27:37.082Z,77.00
2019-05-02T08:30:07.652Z,74.45
2019-05-02T08:32:37.290Z,70.63
2019-05-02T08:35:08.218Z,72.58
2019-05-02T08:37:41.051Z,69.47
2019-05-02T08:40:10.495Z,73.07
2019-05-02T08:42:40.075Z,77.30
2019-05-02T08:45:09.458Z,75.73
2019-05-02T08:47:38.746Z,79.97
2019-05-02T08:50:08.471Z,77.57
2019-05-02T08:52:42.117Z,74.63
2019-05-02T08:55:09.806Z,73.07
2019-05-02T08:57:39.366Z,73.77
2019-05-02T09:00:10.161Z,78.60
2019-05-02T09:02:41.662Z,77.30
2019-05-02T09:05:10.922Z,68.53
2019-05-02T09:07:42.748Z,71.00
2019-05-02T09:10:11.370Z,71.97
2019-05-02T09:12:44.346Z,69.53
2019-05-02T09:15:12.697Z,68.72
2019-05-02T09:17:46.513Z,71.17
2019-05-02T09:20:18.716Z,69.33
2019-05-02T09:22:46.506Z,68.80
2019-05-02T09:25:16.986Z,65.25
2019-05-02T09:27:46.291Z,68.65
2019-05-02T09:30:17.014Z,68.15
2019-05-02T09:32:46.974Z,64.87
2019-05-02T09:35:16.599Z,61.13
2019-05-02T09:37:45.986Z,65.12
2019-05-02T09:40:16.868Z,68.72
2019-05-02T09:42:50.607Z,64.00
2019-05-02T09:45:22.745Z,65.62
2019-05-02T09:47:59.645Z,68.12
2019-05-02T09:50:29.427Z,65.47
2019-05-02T09:52:54.823Z,62.40
2019-05-02T09:55:24.309Z,61.05
2019-05-02T09:57:54.571Z,57.98
2019-05-02T10:00:36.185Z,52.85
2019-05-02T10:03:05.661Z,53.90
2019-05-02T10:05:35.150Z,51.13
2019-05-02T10:08:06.899Z,54.42
2019-05-02T10:10:37.248Z,55.40
2019-05-02T10:13:08.154Z,52.98
2019-05-02T10:15:37.539Z,54.85
2019-05-02T10:18:10.713Z,51.18
2019-05-02T10:20:38.744Z,54.80
2019-05-02T10:23:12.020Z,55.63
2019-05-02T10:25:44.641Z,49.65
2019-05-02T10:28:12.789Z,51.77
2019-05-02T10:30:42.675Z,50.23
2019-05-02T10:33:13.122Z,50.83
2019-05-02T10:35:44.069Z,48.85
2019-05-02T10:38:17.638Z,54.23
2019-05-02T10:40:48.411Z,47.83
2019-05-02T10:43:15.906Z,50.33
2019-05-02T10:45:52.818Z,54.03
2019-05-02T10:48:25.797Z,49.23
2019-05-02T10:50:52.458Z,48.65
2019-05-02T10:53:22.061Z,48.35
2019-05-02T10:55:52.321Z,48.58
2019-05-02T10:58:25.825Z,53.08
2019-05-02T11:00:53.134Z,48.52
2019-05-02T11:03:31.972Z,47.85
2019-05-02T11:06:07.416Z,52.65
2019-05-02T11:08:36.747Z,49.60
2019-05-02T11:11:06.285Z,47.95
2019-05-02T11:13:55.401Z,45.23
2019-05-02T11:16:39.699Z,48.05
2019-05-02T11:19:31.847Z,46.85
2019-05-02T11:22:02.921Z,48.28
2019-05-02T11:24:32.221Z,44.08
2019-05-02T11:27:02.207Z,43.73
2019-05-02T11:29:32.295Z,42.98
2019-05-02T11:32:02.799Z,48.30
2019-05-02T11:34:32.768Z,46.02
2019-05-02T11:37:02.286Z,50.52
2019-05-02T11:39:36.956Z,40.67
2019-05-02T11:42:02.625Z,43.08
2019-05-02T11:44:32.730Z,37.83
2019-05-02T11:47:02.189Z,39.40
2019-05-02T11:49:32.101Z,38.73
2019-05-02T11:52:04.570Z,33.78
2019-05-02T11:54:32.844Z,32.55
2019-05-02T11:57:02.350Z,35.15
2019-05-02T11:59:33.230Z,37.65
2019-05-02T12:02:24.432Z,34.50
2019-05-02T12:04:55.501Z,38.05
2019-05-02T12:07:25.178Z,36.60
2019-05-02T12:09:56.992Z,37.17
2019-05-02T12:12:27.241Z,35.58
2019-05-02T12:14:56.732Z,32.50
2019-05-02T12:17:26.009Z,30.82
2019-05-02T12:19:55.231Z,28.95
2019-05-02T12:22:24.495Z,30.20
2019-05-02T12:24:53.758Z,29.52
2019-05-02T12:27:23.494Z,35.95
2019-05-02T12:29:57.897Z,32.10
2019-05-02T12:32:24.726Z,30.65
2019-05-02T12:34:55.154Z,25.90
2019-05-02T12:37:24.632Z,29.42
2019-05-02T12:39:53.892Z,29.42
2019-05-02T12:42:24.171Z,28.70
2019-05-02T12:44:53.684Z,25.00
2019-05-02T12:47:22.943Z,21.85
2019-05-02T12:49:52.170Z,22.75
2019-05-02T12:52:22.587Z,27.13
2019-05-02T12:54:52.639Z,28.27
2019-05-02T12:57:23.126Z,29.77
2019-05-02T12:59:52.606Z,25.92
2019-05-02T13:02:45.908Z,26.12
2019-05-02T13:05:15.470Z,22.58
2019-05-02T13:07:50.529Z,20.70
2019-05-02T13:10:24.190Z,23.73
2019-05-02T13:12:53.405Z,17.70
2019-05-02T13:15:22.840Z,17.62
2019-05-02T13:17:52.458Z,20.32
2019-05-02T13:20:24.745Z,20.10
2019-05-02T13:23:22.523Z,19.67
2019-05-02T13:25:51.884Z,17.92
2019-05-02T13:28:22.317Z,22.17
2019-05-02T13:31:17.173Z,18.10
2019-05-02T13:33:57.051Z,19.05
2019-05-02T13:36:52.431Z,22.48
2019-05-02T13:39:37.448Z,18.25
2019-05-02T13:42:07.173Z,20.37
2019-05-02T13:44:41.657Z,22.00
2019-05-02T13:47:12.550Z,19.17
2019-05-02T13:49:53.575Z,21.80
2019-05-02T13:52:14.747Z,20.30
2019-05-02T13:54:44.037Z,17.48
2019-05-02T13:57:13.719Z,20.27
2019-05-02T13:59:43.264Z,18.07
2019-05-02T14:02:33.659Z,18.60
2019-05-02T14:05:02.958Z,21.02
2019-05-02T14:07:32.799Z,17.32
2019-05-02T14:10:05.939Z,16.75
2019-05-02T14:12:52.860Z,17.07
2019-05-02T14:15:23.062Z,19.67
2019-05-02T14:17:52.612Z,19.17
2019-05-02T14:20:22.537Z,18.87
2019-05-02T14:22:52.698Z,19.75
2019-05-02T14:25:22.663Z,18.48
2019-05-02T14:27:55.498Z,17.55
2019-05-02T14:30:36.009Z,18.27
2019-05-02T14:32:57.939Z,17.00
2019-05-02T14:35:29.760Z,17.25
2019-05-02T14:38:09.032Z,15.90
2019-05-02T14:40:45.514Z,16.07
2019-05-02T14:43:38.079Z,17.87
2019-05-02T14:46:05.615Z,15.23
2019-05-02T14:48:45.072Z,16.50
2019-05-02T14:51:16.793Z,15.95
2019-05-02T14:53:43.462Z,15.23
2019-05-02T14:56:32.939Z,15.65
2019-05-02T14:59:02.718Z,19.02
2019-05-02T15:01:32.308Z,17.52
2019-05-02T15:04:06.380Z,13.58
2019-05-02T15:06:33.756Z,15.53
2019-05-02T15:09:03.804Z,14.13
2019-05-02T15:11:34.955Z,15.75
2019-05-02T15:14:03.999Z,16.57
2019-05-02T15:16:42.079Z,16.62
2019-05-02T15:19:04.426Z,19.85
2019-05-02T15:21:54.722Z,15.30
2019-05-02T15:24:23.122Z,18.23
2019-05-02T15:26:52.856Z,15.93
2019-05-02T15:29:27.095Z,17.95
2019-05-02T15:32:07.093Z,17.60
2019-05-02T15:34:55.597Z,15.98
2019-05-02T15:37:25.930Z,18.48
2019-05-02T15:42:26.451Z,11.90
2019-05-02T15:44:57.186Z,14.35
2019-05-02T15:47:27.149Z,11.33
2019-05-02T15:49:56.473Z,14.45
2019-05-02T15:52:29.919Z,14.03
2019-05-02T15:55:01.216Z,13.00
2019-05-02T15:57:37.653Z,18.85
2019-05-02T16:00:01.684Z,20.05
2019-05-02T16:02:32.147Z,18.40
2019-05-02T16:05:05.319Z,24.50
2019-05-02T16:07:33.281Z,18.90
2019-05-02T16:10:03.929Z,22.52
2019-05-02T16:12:36.064Z,21.45
2019-05-02T16:15:12.940Z,19.80
2019-05-02T16:17:35.905Z,20.55
2019-05-02T16:20:13.417Z,18.42
2019-05-02T16:22:46.219Z,16.80
2019-05-02T16:25:14.043Z,18.75
2019-05-02T16:27:45.390Z,17.05
2019-05-02T16:30:16.402Z,19.32
2019-05-02T16:32:52.064Z,19.75
2019-05-02T16:35:22.969Z,19.57
2019-05-02T16:37:55.866Z,20.00
2019-05-02T16:40:29.749Z,19.65
2019-05-02T16:42:54.763Z,19.73
2019-05-02T16:45:24.409Z,19.85
2019-05-02T16:47:58.573Z,19.23
2019-05-02T16:50:34.769Z,21.85
2019-05-02T16:52:57.037Z,21.90
2019-05-02T16:55:26.870Z,19.12
2019-05-02T16:57:56.608Z,20.85
2019-05-02T17:00:28.761Z,15.03
2019-05-02T17:02:58.149Z,14.18
2019-05-02T17:05:27.478Z,12.82
2019-05-02T17:08:10.754Z,12.63
2019-05-02T17:10:53.777Z,15.83
2019-05-02T17:13:21.638Z,13.68
2019-05-02T17:15:52.282Z,14.27
2019-05-02T17:18:22.852Z,13.57
2019-05-02T17:20:56.828Z,14.68
2019-05-02T17:23:26.745Z,14.07
2019-05-02T17:25:57.078Z,15.13
2019-05-02T17:28:32.840Z,13.10
2019-05-02T17:31:02.245Z,12.23
2019-05-02T17:33:32.411Z,15.60
2019-05-02T17:36:02.220Z,15.00
2019-05-02T17:38:31.647Z,15.03
2019-05-02T17:41:04.913Z,13.53
2019-05-02T17:43:37.479Z,15.37
2019-05-02T17:46:07.495Z,14.68
2019-05-02T17:48:37.369Z,16.00
2019-05-02T17:51:16.363Z,14.37
2019-05-02T17:53:49.693Z,13.20
2019-05-02T17:56:20.462Z,17.07
2019-05-02T17:58:56.872Z,13.77
2019-05-02T18:01:33.294Z,13.63
2019-05-02T18:04:01.996Z,16.83
2019-05-02T18:06:34.995Z,17.60
2019-05-02T18:09:03.728Z,16.73
2019-05-02T18:11:36.437Z,16.27
2019-05-02T18:14:10.301Z,15.90
2019-05-02T18:16:35.532Z,18.97
2019-05-02T18:19:04.845Z,17.40
2019-05-02T18:21:34.209Z,20.40
2019-05-02T18:24:06.008Z,17.77
2019-05-02T18:26:34.710Z,18.83
2019-05-02T18:29:06.811Z,20.27
2019-05-02T18:31:40.082Z,20.77
2019-05-02T18:34:06.843Z,24.30
2019-05-02T18:36:36.064Z,25.27
2019-05-02T18:39:08.432Z,25.50
2019-05-02T18:41:42.742Z,28.47
2019-05-02T18:44:09.020Z,29.17
2019-05-02T18:46:41.560Z,27.37
2019-05-02T18:49:09.350Z,26.10
2019-05-02T18:51:39.518Z,25.57
2019-05-02T18:54:12.001Z,27.67
2019-05-02T18:56:46.415Z,26.13
2019-05-02T18:59:14.261Z,23.00
2019-05-02T19:01:47.511Z,26.10
2019-05-02T19:04:14.642Z,23.37
2019-05-02T19:06:43.956Z,21.60
2019-05-02T19:09:17.438Z,24.57
2019-05-02T19:11:44.566Z,21.47
2019-05-02T19:14:16.631Z,22.23
2019-05-02T19:16:45.021Z,20.43
2019-05-02T19:19:14.334Z,18.00
2019-05-02T19:21:43.706Z,20.60
2019-05-02T19:24:13.278Z,22.90
2019-05-02T19:26:49.123Z,23.00
2019-05-02T19:29:21.504Z,26.27
2019-05-02T19:31:52.797Z,25.87
2019-05-02T19:34:26.613Z,25.57
2019-05-02T19:36:58.076Z,25.10
2019-05-02T19:39:26.116Z,24.30
2019-05-02T19:41:55.442Z,20.47
2019-05-02T19:44:29.248Z,21.27
2019-05-02T19:46:55.775Z,21.60
2019-05-02T19:49:26.325Z,18.43
2019-05-02T19:51:58.258Z,22.13
2019-05-02T19:54:33.580Z,20.27
2019-05-02T19:56:59.152Z,19.63
2019-05-02T19:59:29.751Z,20.13
2019-05-02T20:02:02.406Z,21.30
2019-05-02T20:04:32.879Z,21.70
2019-05-02T20:07:02.493Z,20.40
2019-05-02T20:09:33.285Z,19.57
2019-05-02T20:12:07.632Z,20.47
2019-05-02T20:14:38.155Z,21.00
2019-05-02T20:17:06.398Z,20.60
2019-05-02T20:19:38.255Z,22.57
2019-05-02T20:22:12.633Z,21.77
2019-05-02T20:25:00.284Z,20.17
2019-05-02T20:27:28.558Z,22.30
2019-05-02T20:29:58.292Z,25.33
2019-05-02T20:32:29.414Z,26.00
2019-05-02T20:34:58.685Z,24.27
2019-05-02T20:37:28.506Z,25.77
2019-05-02T20:39:57.921Z,23.10
2019-05-02T20:42:27.625Z,28.90
2019-05-02T20:44:57.224Z,24.60
2019-05-02T20:47:27.041Z,26.27
2019-05-02T20:49:56.745Z,23.47
2019-05-02T20:52:26.067Z,26.23
2019-05-02T20:54:55.345Z,25.33
2019-05-02T20:57:25.723Z,29.53
2019-05-02T20:59:55.117Z,28.53
2019-05-02T21:02:24.424Z,26.03
2019-05-02T21:04:53.719Z,29.53
2019-05-02T21:07:42.430Z,27.40
2019-05-02T21:10:21.803Z,26.83
2019-05-02T21:12:52.615Z,30.17
2019-05-02T21:15:22.712Z,30.53
2019-05-02T21:17:51.872Z,28.87
2019-05-02T21:20:21.938Z,27.87
2019-05-02T21:22:52.926Z,29.00
2019-05-02T21:25:23.228Z,33.20
2019-05-02T21:27:52.850Z,35.33
2019-05-02T21:30:27.651Z,31.63
2019-05-02T21:32:56.931Z,29.27
2019-05-02T21:35:26.293Z,31.40
2019-05-02T21:37:55.661Z,32.23
2019-05-02T21:40:25.862Z,31.40
2019-05-02T21:42:55.680Z,33.33
2019-05-02T21:45:25.513Z,33.80
2019-05-02T21:47:55.098Z,37.33
2019-05-02T21:50:34.828Z,34.10
2019-05-02T21:53:23.584Z,35.07
2019-05-02T21:56:17.499Z,36.20
2019-05-02T21:59:05.861Z,37.50
2019-05-02T22:01:42.209Z,32.10
2019-05-02T22:04:13.124Z,32.73
2019-05-02T22:06:42.851Z,35.53
2019-05-02T22:09:12.561Z,34.30
2019-05-02T22:11:42.990Z,34.20
2019-05-02T22:14:13.245Z,32.40
2019-05-02T22:16:42.997Z,32.03
2019-05-02T22:19:12.854Z,30.73
2019-05-02T22:21:43.021Z,16.03
2019-05-02T22:24:14.467Z,18.83
2019-05-02T22:26:43.661Z,20.30
2019-05-02T22:29:12.986Z,19.67
2019-05-02T22:31:43.149Z,22.60
2019-05-02T22:34:13.249Z,20.77
2019-05-02T22:36:43.020Z,18.90
2019-05-02T22:39:50.274Z,20.70
2019-05-02T22:42:21.764Z,19.40
2019-05-02T22:44:50.940Z,23.10
2019-05-02T22:47:22.736Z,20.33
2019-05-02T22:49:52.115Z,21.73
2019-05-02T22:52:21.931Z,21.97
2019-05-02T22:54:52.298Z,23.03
2019-05-02T22:57:22.545Z,27.47
2019-05-02T22:59:52.176Z,26.67
2019-05-02T23:02:22.085Z,20.57
2019-05-02T23:04:52.645Z,21.37
2019-05-02T23:07:22.401Z,19.83
2019-05-02T23:09:52.714Z,16.53
2019-05-02T23:12:22.551Z,14.87
2019-05-02T23:14:53.063Z,12.07
2019-05-02T23:17:23.261Z,9.20
2019-05-02T23:19:52.907Z,11.80
2019-05-02T23:22:22.277Z,10.57
2019-05-02T23:25:09.534Z,10.03
2019-05-02T23:27:45.962Z,12.13
2019-05-02T23:30:19.385Z,9.27
2019-05-02T23:32:48.560Z,10.33
2019-05-02T23:35:17.800Z,9.53
2019-05-02T23:37:46.980Z,10.43
2019-05-02T23:40:16.530Z,8.83
2019-05-02T23:42:45.768Z,8.13
2019-05-02T23:45:15.174Z,7.90
2019-05-02T23:47:44.804Z,9.23
2019-05-02T23:50:14.281Z,7.77
2019-05-02T23:52:43.537Z,8.20
2019-05-02T23:55:12.942Z,8.70
2019-05-02T23:57:42.266Z,9.47
